createdAt,value
2019-02-21T00:02:13.708Z,16.90
2019-02-21T00:04:42.175Z,17.30
2019-02-21T00:07:10.799Z,17.57
2019-02-21T00:09:39.263Z,16.73
2019-02-21T00:12:07.685Z,17.97
2019-02-21T00:14:36.204Z,18.07
2019-02-21T00:17:04.780Z,17.63
2019-02-21T00:19:33.243Z,18.83
2019-02-21T00:22:01.740Z,16.60
2019-02-21T00:24:30.155Z,17.80
2019-02-21T00:26:58.742Z,17.87
2019-02-21T00:29:27.204Z,17.47
2019-02-21T00:31:55.623Z,17.53
2019-02-21T00:34:24.186Z,15.47
2019-02-21T00:36:52.668Z,16.43
2019-02-21T00:39:21.242Z,17.23
2019-02-21T00:41:49.708Z,17.23
2019-02-21T00:44:18.157Z,16.73
2019-02-21T00:46:46.676Z,18.27
2019-02-21T00:49:15.111Z,17.67
2019-02-21T00:51:43.560Z,16.93
2019-02-21T00:54:12.159Z,18.40
2019-02-21T00:56:40.683Z,16.80
2019-02-21T00:59:09.272Z,15.97
2019-02-21T01:01:37.728Z,16.07
2019-02-21T01:04:06.287Z,15.93
2019-02-21T01:06:34.750Z,16.50
2019-02-21T01:09:04.414Z,17.27
2019-02-21T01:11:32.965Z,16.87
2019-02-21T01:14:01.470Z,15.90
2019-02-21T01:16:30.073Z,15.23
2019-02-21T01:18:58.675Z,15.07
2019-02-21T01:21:27.090Z,15.17
2019-02-21T01:23:55.765Z,15.37
2019-02-21T01:26:24.213Z,15.33
2019-02-21T01:28:53.159Z,15.33
2019-02-21T01:31:21.683Z,15.13
2019-02-21T01:33:50.486Z,15.50
2019-02-21T01:36:19.081Z,14.80
2019-02-21T01:38:47.602Z,14.70
2019-02-21T01:41:16.090Z,15.97
2019-02-21T01:43:44.538Z,15.43
2019-02-21T01:46:13.043Z,15.07
2019-02-21T01:48:41.525Z,14.90
2019-02-21T01:51:10.075Z,15.30
2019-02-21T01:53:38.597Z,14.87
2019-02-21T01:56:07.273Z,14.47
2019-02-21T01:58:35.799Z,13.77
2019-02-21T02:01:08.592Z,15.53
2019-02-21T02:03:34.810Z,14.60
2019-02-21T02:06:03.243Z,14.73
2019-02-21T02:08:31.743Z,14.33
2019-02-21T02:11:00.295Z,14.60
2019-02-21T02:13:28.754Z,14.33
2019-02-21T02:15:57.188Z,14.53
2019-02-21T02:18:25.667Z,14.57
2019-02-21T02:20:54.259Z,14.10
2019-02-21T02:23:22.677Z,15.07
2019-02-21T02:25:51.141Z,14.87
2019-02-21T02:28:19.617Z,14.17
2019-02-21T02:30:48.278Z,14.70
2019-02-21T02:33:16.835Z,16.37
2019-02-21T02:35:45.441Z,15.47
2019-02-21T02:38:13.947Z,15.67
2019-02-21T02:40:42.465Z,14.90
2019-02-21T02:43:11.238Z,15.87
2019-02-21T02:45:39.717Z,14.67
2019-02-21T02:48:08.215Z,16.10
2019-02-21T02:50:36.670Z,14.73
2019-02-21T02:53:05.108Z,15.93
2019-02-21T02:55:33.563Z,15.50
2019-02-21T02:58:01.983Z,16.03
2019-02-21T03:00:30.485Z,15.17
2019-02-21T03:02:59.158Z,14.73
2019-02-21T03:05:27.772Z,15.00
2019-02-21T03:07:56.481Z,16.03
2019-02-21T03:10:25.004Z,16.03
2019-02-21T03:12:53.443Z,16.47
2019-02-21T03:15:22.033Z,16.30
2019-02-21T03:17:50.622Z,16.00
2019-02-21T03:20:19.144Z,16.50
2019-02-21T03:22:47.585Z,16.17
2019-02-21T03:25:16.348Z,16.60
2019-02-21T03:27:44.812Z,17.33
2019-02-21T03:30:13.548Z,16.47
2019-02-21T03:32:42.179Z,16.80
2019-02-21T03:35:10.797Z,17.37
2019-02-21T03:37:39.277Z,16.30
2019-02-21T03:40:09.699Z,18.30
2019-02-21T03:42:38.153Z,17.13
2019-02-21T03:45:09.978Z,17.23
2019-02-21T03:47:38.481Z,18.47
2019-02-21T03:50:09.377Z,18.43
2019-02-21T03:52:37.837Z,17.27
2019-02-21T03:55:07.529Z,17.03
2019-02-21T03:57:36.001Z,18.00
2019-02-21T04:00:07.196Z,19.27
2019-02-21T04:02:35.957Z,18.27
2019-02-21T04:05:05.528Z,18.53
2019-02-21T04:07:34.065Z,20.07
2019-02-21T04:10:02.778Z,18.10
2019-02-21T04:12:31.209Z,18.27
2019-02-21T04:14:59.736Z,19.47
2019-02-21T04:17:28.378Z,19.13
2019-02-21T04:19:56.868Z,19.30
2019-02-21T04:22:25.489Z,19.30
2019-02-21T04:24:54.077Z,20.70
2019-02-21T04:27:22.691Z,20.13
2019-02-21T04:29:51.223Z,19.60
2019-02-21T04:32:19.830Z,18.93
2019-02-21T04:34:48.282Z,21.00
2019-02-21T04:37:16.783Z,20.37
2019-02-21T04:39:45.240Z,21.33
2019-02-21T04:42:13.723Z,20.53
2019-02-21T04:44:42.192Z,19.27
2019-02-21T04:47:10.778Z,21.10
2019-02-21T04:49:39.275Z,21.77
2019-02-21T04:52:07.855Z,21.93
2019-02-21T04:54:36.385Z,20.97
2019-02-21T04:57:04.835Z,23.20
2019-02-21T04:59:33.274Z,21.97
2019-02-21T05:02:01.707Z,22.73
2019-02-21T05:04:30.280Z,24.73
2019-02-21T05:06:58.893Z,24.13
2019-02-21T05:09:27.520Z,23.80
2019-02-21T05:11:56.063Z,23.93
2019-02-21T05:14:24.694Z,22.57
2019-02-21T05:16:53.182Z,24.00
2019-02-21T05:19:21.634Z,24.10
2019-02-21T05:21:50.060Z,23.50
2019-02-21T05:24:18.565Z,23.17
2019-02-21T05:26:48.636Z,24.37
2019-02-21T05:29:17.157Z,26.07
2019-02-21T05:31:47.352Z,25.53
2019-02-21T05:34:26.574Z,24.63
2019-02-21T05:37:14.667Z,25.27
2019-02-21T05:40:03.550Z,26.77
2019-02-21T05:42:33.776Z,25.17
2019-02-21T05:45:11.090Z,24.97
2019-02-21T05:47:44.505Z,26.10
2019-02-21T05:50:20.453Z,27.20
2019-02-21T05:52:53.169Z,25.97
2019-02-21T05:55:26.168Z,26.73
2019-02-21T05:57:58.901Z,27.27
2019-02-21T06:00:28.947Z,25.77
2019-02-21T06:02:59.208Z,27.53
2019-02-21T06:05:29.453Z,30.17
2019-02-21T06:08:15.732Z,26.20
2019-02-21T06:10:45.882Z,27.87
2019-02-21T06:13:32.533Z,26.83
2019-02-21T06:16:05.948Z,29.73
2019-02-21T06:18:42.352Z,28.50
2019-02-21T06:21:12.457Z,29.83
2019-02-21T06:23:42.538Z,26.67
2019-02-21T06:26:12.614Z,27.90
2019-02-21T06:28:48.801Z,28.20
2019-02-21T06:31:17.454Z,28.17
2019-02-21T06:33:45.978Z,29.47
2019-02-21T06:36:14.572Z,29.93
2019-02-21T06:38:43.029Z,29.63
2019-02-21T06:41:11.524Z,28.70
2019-02-21T06:43:40.228Z,30.67
2019-02-21T06:46:08.720Z,28.30
2019-02-21T06:48:37.309Z,29.77
2019-02-21T06:51:05.819Z,29.17
2019-02-21T06:53:34.339Z,28.77
2019-02-21T06:56:02.975Z,30.13
2019-02-21T06:58:31.437Z,30.03
2019-02-21T07:00:59.863Z,30.07
2019-02-21T07:03:29.129Z,29.73
2019-02-21T07:05:57.703Z,28.87
2019-02-21T07:08:26.294Z,29.23
2019-02-21T07:11:05.516Z,29.23
2019-02-21T07:13:26.944Z,29.97
2019-02-21T07:15:55.205Z,30.30
2019-02-21T07:18:23.678Z,30.33
2019-02-21T07:20:52.124Z,30.87
2019-02-21T07:23:21.275Z,32.70
2019-02-21T07:25:50.826Z,30.67
2019-02-21T07:28:19.305Z,29.97
2019-02-21T07:30:48.459Z,31.37
2019-02-21T07:33:27.704Z,33.63
2019-02-21T07:35:47.161Z,30.87
2019-02-21T07:38:17.177Z,29.40
2019-02-21T07:40:46.224Z,29.30
2019-02-21T07:43:14.657Z,28.87
2019-02-21T07:45:43.180Z,33.57
2019-02-21T07:48:11.620Z,37.73
2019-02-21T07:50:40.153Z,30.63
2019-02-21T07:53:08.659Z,28.53
2019-02-21T07:55:37.114Z,28.77
2019-02-21T07:58:05.630Z,28.90
2019-02-21T08:00:34.307Z,27.90
2019-02-21T08:03:02.764Z,28.87
2019-02-21T08:05:31.233Z,28.00
2019-02-21T08:07:59.895Z,28.27
2019-02-21T08:10:33.617Z,28.60
2019-02-21T08:12:58.587Z,28.53
2019-02-21T08:15:27.880Z,27.90
2019-02-21T08:17:56.430Z,29.63
2019-02-21T08:20:33.540Z,47.37
2019-02-21T08:22:56.232Z,29.40
2019-02-21T08:25:24.836Z,28.60
2019-02-21T08:27:53.309Z,28.87
2019-02-21T08:30:21.787Z,29.67
2019-02-21T08:33:00.679Z,27.80
2019-02-21T08:35:30.125Z,28.00
2019-02-21T08:37:58.661Z,27.03
2019-02-21T08:40:27.443Z,27.80
2019-02-21T08:42:55.979Z,27.53
2019-02-21T08:45:24.647Z,28.00
2019-02-21T08:47:53.241Z,27.60
2019-02-21T08:50:22.480Z,27.73
2019-02-21T08:52:51.395Z,28.23
2019-02-21T08:55:19.918Z,25.70
2019-02-21T08:57:48.375Z,27.40
2019-02-21T09:00:17.243Z,27.50
2019-02-21T09:02:45.866Z,27.80
2019-02-21T09:05:14.926Z,27.63
2019-02-21T09:07:46.216Z,26.97
2019-02-21T09:10:14.259Z,28.00
2019-02-21T09:12:47.754Z,28.13
2019-02-21T09:15:15.709Z,27.83
2019-02-21T09:17:44.168Z,27.33
2019-02-21T09:20:12.936Z,27.60
2019-02-21T09:22:41.408Z,27.23
2019-02-21T09:25:13.754Z,27.33
2019-02-21T09:27:42.323Z,27.17
2019-02-21T09:30:15.823Z,28.30
2019-02-21T09:32:44.381Z,27.90
2019-02-21T09:35:12.988Z,27.57
2019-02-21T09:37:41.463Z,28.37
2019-02-21T09:40:12.708Z,27.97
2019-02-21T09:42:41.284Z,26.50
2019-02-21T09:45:18.010Z,26.93
2019-02-21T09:47:46.442Z,25.23
2019-02-21T09:50:15.247Z,27.17
2019-02-21T09:52:43.802Z,27.60
2019-02-21T09:55:15.116Z,27.10
2019-02-21T09:57:43.647Z,27.10
2019-02-21T10:00:22.590Z,26.37
2019-02-21T10:02:54.310Z,25.57
2019-02-21T10:05:21.251Z,26.50
2019-02-21T10:07:49.770Z,26.43
2019-02-21T10:10:19.769Z,29.40
2019-02-21T10:12:48.316Z,28.30
2019-02-21T10:15:19.794Z,27.63
2019-02-21T10:17:50.759Z,27.10
2019-02-21T10:20:20.428Z,26.93
2019-02-21T10:22:48.877Z,26.83
2019-02-21T10:25:26.243Z,26.33
2019-02-21T10:27:54.751Z,26.10
2019-02-21T10:30:23.893Z,26.73
2019-02-21T10:32:52.458Z,27.83
2019-02-21T10:35:21.020Z,28.90
2019-02-21T10:37:49.543Z,27.80
2019-02-21T10:40:18.234Z,26.43
2019-02-21T10:42:46.834Z,27.47
2019-02-21T10:45:19.923Z,26.50
2019-02-21T10:47:48.530Z,28.20
2019-02-21T10:50:19.553Z,28.37
2019-02-21T10:52:48.480Z,26.23
2019-02-21T10:55:18.071Z,28.43
2019-02-21T10:57:46.814Z,24.63
2019-02-21T11:00:26.950Z,25.67
2019-02-21T11:02:55.596Z,24.90
2019-02-21T11:05:24.105Z,24.93
2019-02-21T11:07:52.651Z,23.67
2019-02-21T11:10:28.997Z,23.33
2019-02-21T11:12:57.584Z,22.83
2019-02-21T11:15:26.525Z,22.27
2019-02-21T11:17:55.519Z,22.47
2019-02-21T11:20:24.297Z,22.53
2019-02-21T11:22:52.790Z,22.50
2019-02-21T11:25:21.538Z,21.93
2019-02-21T11:27:50.080Z,22.10
2019-02-21T11:30:19.662Z,21.87
2019-02-21T11:32:48.191Z,20.73
2019-02-21T11:35:16.838Z,20.93
2019-02-21T11:37:47.110Z,20.20
2019-02-21T11:40:17.543Z,19.40
2019-02-21T11:42:46.325Z,20.87
2019-02-21T11:45:17.801Z,20.13
2019-02-21T11:47:46.422Z,22.53
2019-02-21T11:50:16.609Z,21.07
2019-02-21T11:52:45.378Z,29.27
2019-02-21T11:55:16.260Z,22.60
2019-02-21T11:57:44.767Z,20.03
2019-02-21T12:00:19.450Z,19.40
2019-02-21T12:02:48.083Z,20.97
2019-02-21T12:05:17.746Z,20.90
2019-02-21T12:07:46.409Z,18.13
2019-02-21T12:10:15.194Z,18.20
2019-02-21T12:12:43.625Z,18.00
2019-02-21T12:15:13.644Z,18.60
2019-02-21T12:17:43.132Z,18.70
2019-02-21T12:20:18.761Z,18.67
2019-02-21T12:22:47.588Z,19.67
2019-02-21T12:25:21.903Z,18.57
2019-02-21T12:27:50.604Z,19.87
2019-02-21T12:30:20.074Z,19.10
2019-02-21T12:32:48.672Z,18.17
2019-02-21T12:35:28.725Z,18.20
2019-02-21T12:37:47.982Z,17.77
2019-02-21T12:40:19.524Z,18.73
2019-02-21T12:42:47.952Z,16.93
2019-02-21T12:45:19.280Z,22.17
2019-02-21T12:47:53.007Z,19.97
2019-02-21T12:50:18.298Z,19.13
2019-02-21T12:52:46.793Z,19.43
2019-02-21T12:55:26.408Z,20.13
2019-02-21T12:57:45.647Z,21.43
2019-02-21T13:00:21.226Z,21.47
2019-02-21T13:02:49.915Z,20.43
2019-02-21T13:05:18.719Z,20.60
2019-02-21T13:07:47.172Z,21.03
2019-02-21T13:10:24.137Z,20.47
2019-02-21T13:12:52.636Z,20.63
2019-02-21T13:15:21.450Z,20.63
2019-02-21T13:17:51.077Z,20.57
2019-02-21T13:20:19.860Z,20.70
2019-02-21T13:22:48.368Z,20.03
2019-02-21T13:25:18.231Z,20.70
2019-02-21T13:27:46.683Z,20.47
2019-02-21T13:30:18.603Z,20.43
2019-02-21T13:32:47.196Z,20.63
2019-02-21T13:35:15.766Z,19.07
2019-02-21T13:37:44.521Z,20.77
2019-02-21T13:40:20.787Z,21.53
2019-02-21T13:42:47.728Z,20.87
2019-02-21T13:45:18.124Z,21.33
2019-02-21T13:47:46.714Z,20.67
2019-02-21T13:50:20.388Z,19.87
2019-02-21T13:52:49.386Z,20.37
2019-02-21T13:55:17.833Z,20.40
2019-02-21T13:57:46.466Z,20.20
2019-02-21T14:00:20.217Z,21.43
2019-02-21T14:02:48.806Z,19.57
2019-02-21T14:05:17.392Z,20.90
2019-02-21T14:07:46.101Z,19.07
2019-02-21T14:10:14.898Z,19.63
2019-02-21T14:12:43.425Z,20.13
2019-02-21T14:15:17.467Z,20.93
2019-02-21T14:17:46.724Z,19.97
2019-02-21T14:20:15.579Z,19.67
2019-02-21T14:22:44.585Z,20.17
2019-02-21T14:25:13.123Z,19.27
2019-02-21T14:27:41.577Z,18.63
2019-02-21T14:30:13.172Z,18.87
2019-02-21T14:32:41.642Z,19.23
2019-02-21T14:35:12.127Z,18.63
2019-02-21T14:37:40.629Z,19.17
2019-02-21T14:40:11.275Z,19.87
2019-02-21T14:42:39.853Z,17.70
2019-02-21T14:45:17.619Z,18.27
2019-02-21T14:47:46.208Z,17.47
2019-02-21T14:50:14.887Z,17.13
2019-02-21T14:52:43.492Z,16.07
2019-02-21T14:55:15.973Z,15.73
2019-02-21T14:57:44.414Z,17.10
2019-02-21T15:00:16.023Z,15.63
2019-02-21T15:02:44.456Z,15.60
2019-02-21T15:05:13.088Z,16.20
2019-02-21T15:07:41.632Z,17.30
2019-02-21T15:10:10.938Z,17.33
2019-02-21T15:12:39.403Z,16.80
2019-02-21T15:15:11.223Z,15.93
2019-02-21T15:17:39.835Z,17.03
2019-02-21T15:20:11.053Z,16.77
2019-02-21T15:22:39.610Z,17.50
2019-02-21T15:25:09.182Z,17.70
2019-02-21T15:27:37.652Z,19.10
2019-02-21T15:30:15.344Z,18.57
2019-02-21T15:32:44.911Z,17.97
2019-02-21T15:35:13.792Z,18.10
2019-02-21T15:37:44.802Z,18.50
2019-02-21T15:40:12.513Z,17.97
2019-02-21T15:42:41.040Z,17.03
2019-02-21T15:45:23.025Z,19.10
2019-02-21T15:47:48.535Z,18.23
2019-02-21T15:50:19.730Z,18.87
2019-02-21T15:52:47.902Z,17.67
2019-02-21T15:55:18.300Z,17.97
2019-02-21T15:57:46.780Z,20.10
2019-02-21T16:00:20.235Z,18.70
2019-02-21T16:02:48.777Z,19.37
2019-02-21T16:05:17.416Z,18.17
2019-02-21T16:07:45.973Z,18.43
2019-02-21T16:10:20.218Z,20.13
2019-02-21T16:12:49.503Z,19.23
2019-02-21T16:15:18.478Z,20.13
2019-02-21T16:17:47.031Z,19.77
2019-02-21T16:20:17.310Z,19.40
2019-02-21T16:22:45.856Z,20.37
2019-02-21T16:25:31.667Z,20.40
2019-02-21T16:28:00.258Z,19.47
2019-02-21T16:30:28.759Z,20.83
2019-02-21T16:32:57.306Z,20.07
2019-02-21T16:35:27.345Z,20.47
2019-02-21T16:37:56.010Z,19.47
2019-02-21T16:40:24.462Z,20.37
2019-02-21T16:42:53.003Z,20.23
2019-02-21T16:45:22.931Z,21.83
2019-02-21T16:47:51.617Z,20.43
2019-02-21T16:50:29.252Z,19.67
2019-02-21T16:52:50.433Z,20.47
2019-02-21T16:55:21.160Z,19.53
2019-02-21T16:57:49.604Z,22.30
2019-02-21T17:00:20.351Z,21.47
2019-02-21T17:02:48.869Z,21.50
2019-02-21T17:05:17.634Z,23.93
2019-02-21T17:07:46.189Z,26.53
2019-02-21T17:10:16.128Z,39.07
2019-02-21T17:12:44.697Z,34.27
2019-02-21T17:15:15.239Z,28.17
2019-02-21T17:17:43.772Z,25.37
2019-02-21T17:20:17.154Z,25.97
2019-02-21T17:22:45.785Z,24.43
2019-02-21T17:25:15.557Z,24.57
2019-02-21T17:27:46.146Z,24.03
2019-02-21T17:30:16.404Z,24.60
2019-02-21T17:32:44.949Z,24.27
2019-02-21T17:35:14.007Z,24.80
2019-02-21T17:37:42.546Z,24.87
2019-02-21T17:40:19.368Z,24.90
2019-02-21T17:42:48.040Z,24.47
2019-02-21T17:45:16.837Z,24.27
2019-02-21T17:47:45.508Z,24.43
2019-02-21T17:50:16.437Z,25.83
2019-02-21T17:52:45.059Z,25.23
2019-02-21T17:55:14.337Z,26.43
2019-02-21T17:57:42.985Z,25.40
2019-02-21T18:00:21.781Z,25.23
2019-02-21T18:02:50.467Z,26.13
2019-02-21T18:05:19.064Z,25.40
2019-02-21T18:07:47.613Z,24.90
2019-02-21T18:10:17.108Z,26.73
2019-02-21T18:12:45.603Z,27.50
2019-02-21T18:15:15.594Z,27.60
2019-02-21T18:17:44.265Z,25.43
2019-02-21T18:20:14.029Z,26.27
2019-02-21T18:22:42.560Z,26.23
2019-02-21T18:25:29.209Z,24.80
2019-02-21T18:27:57.866Z,26.87
2019-02-21T18:30:26.378Z,26.43
2019-02-21T18:32:54.993Z,24.37
2019-02-21T18:35:23.616Z,26.73
2019-02-21T18:37:54.989Z,25.57
2019-02-21T18:40:25.106Z,26.23
2019-02-21T18:42:53.605Z,26.63
2019-02-21T18:45:22.234Z,25.47
2019-02-21T18:47:50.780Z,27.40
2019-02-21T18:50:19.312Z,27.23
2019-02-21T18:52:47.901Z,26.90
2019-02-21T18:55:16.478Z,26.20
2019-02-21T18:57:45.065Z,27.63
2019-02-21T19:00:16.898Z,34.77
2019-02-21T19:02:45.392Z,30.83
2019-02-21T19:05:14.115Z,31.30
2019-02-21T19:07:42.644Z,31.17
2019-02-21T19:10:16.687Z,30.43
2019-02-21T19:12:45.239Z,30.00
2019-02-21T19:15:14.969Z,26.17
2019-02-21T19:17:43.533Z,28.23
2019-02-21T19:20:14.529Z,27.57
2019-02-21T19:22:43.396Z,26.97
2019-02-21T19:25:12.669Z,28.60
2019-02-21T19:27:41.273Z,28.67
2019-02-21T19:30:15.726Z,28.03
2019-02-21T19:32:44.232Z,28.17
2019-02-21T19:35:12.889Z,28.73
2019-02-21T19:37:41.585Z,28.83
2019-02-21T19:40:11.062Z,29.40
2019-02-21T19:42:39.625Z,28.40
2019-02-21T19:45:09.211Z,30.80
2019-02-21T19:47:37.891Z,28.43
2019-02-21T19:50:08.663Z,28.30
2019-02-21T19:52:37.454Z,28.83
2019-02-21T19:55:08.149Z,28.50
2019-02-21T19:57:36.936Z,28.03
2019-02-21T20:00:08.422Z,27.47
2019-02-21T20:02:37.319Z,27.03
2019-02-21T20:05:06.728Z,29.57
2019-02-21T20:07:35.259Z,27.43
2019-02-21T20:10:04.822Z,27.23
2019-02-21T20:12:33.497Z,26.77
2019-02-21T20:15:01.994Z,28.07
2019-02-21T20:17:30.568Z,28.53
2019-02-21T20:19:59.049Z,26.87
2019-02-21T20:22:27.599Z,26.50
2019-02-21T20:24:56.115Z,27.97
2019-02-21T20:27:24.773Z,26.33
2019-02-21T20:29:53.215Z,26.70
2019-02-21T20:32:22.019Z,27.27
2019-02-21T20:34:50.546Z,24.80
2019-02-21T20:37:19.044Z,26.23
2019-02-21T20:39:47.720Z,27.07
2019-02-21T20:42:16.385Z,24.77
2019-02-21T20:44:44.903Z,26.33
2019-02-21T20:47:13.430Z,25.90
2019-02-21T20:49:42.163Z,25.63
2019-02-21T20:52:10.693Z,26.87
2019-02-21T20:54:39.376Z,24.97
2019-02-21T20:57:07.995Z,26.83
2019-02-21T20:59:36.558Z,25.53
2019-02-21T21:02:05.256Z,24.93
2019-02-21T21:04:33.917Z,25.37
2019-02-21T21:07:02.572Z,24.03
2019-02-21T21:09:31.166Z,25.00
2019-02-21T21:11:59.737Z,24.37
2019-02-21T21:14:28.198Z,24.17
2019-02-21T21:16:56.843Z,24.53
2019-02-21T21:19:25.393Z,22.87
2019-02-21T21:21:54.056Z,24.30
2019-02-21T21:24:22.559Z,24.27
2019-02-21T21:26:51.163Z,23.63
2019-02-21T21:29:19.753Z,24.13
2019-02-21T21:31:48.345Z,23.07
2019-02-21T21:34:17.089Z,24.77
2019-02-21T21:36:45.714Z,24.03
2019-02-21T21:39:14.379Z,25.60
2019-02-21T21:41:42.922Z,23.93
2019-02-21T21:44:11.416Z,24.43
2019-02-21T21:46:39.999Z,25.53
2019-02-21T21:49:08.644Z,25.17
2019-02-21T21:51:37.235Z,24.77
2019-02-21T21:54:05.827Z,24.27
2019-02-21T21:56:34.307Z,24.83
2019-02-21T21:59:02.921Z,24.33
2019-02-21T22:01:31.466Z,25.90
2019-02-21T22:03:59.963Z,25.37
2019-02-21T22:06:28.587Z,24.50
2019-02-21T22:09:04.428Z,26.00
2019-02-21T22:11:27.519Z,24.83
2019-02-21T22:13:55.972Z,26.70
2019-02-21T22:16:24.596Z,25.77
2019-02-21T22:18:53.319Z,25.17
2019-02-21T22:21:21.784Z,24.70
2019-02-21T22:23:50.326Z,25.70
2019-02-21T22:26:18.837Z,26.13
2019-02-21T22:28:47.416Z,25.73
2019-02-21T22:31:15.851Z,26.00
2019-02-21T22:33:44.490Z,24.97
2019-02-21T22:36:12.930Z,27.60
2019-02-21T22:38:41.990Z,24.80
2019-02-21T22:41:10.451Z,24.73
2019-02-21T22:43:38.986Z,24.77
2019-02-21T22:46:07.422Z,25.70
2019-02-21T22:48:46.630Z,26.80
2019-02-21T22:51:06.145Z,27.17
2019-02-21T22:53:34.653Z,26.87
2019-02-21T22:56:03.159Z,24.30
2019-02-21T22:58:31.636Z,27.20
2019-02-21T23:01:03.802Z,27.00
2019-02-21T23:03:44.807Z,29.00
2019-02-21T23:06:25.073Z,28.17
2019-02-21T23:08:54.693Z,28.10
2019-02-21T23:11:23.777Z,28.97
2019-02-21T23:13:52.543Z,27.80
2019-02-21T23:16:21.156Z,29.10
2019-02-21T23:18:50.094Z,28.90
2019-02-21T23:21:18.650Z,29.70
2019-02-21T23:23:47.218Z,28.73
2019-02-21T23:26:15.784Z,28.73
2019-02-21T23:28:44.247Z,29.13
2019-02-21T23:31:13.109Z,29.17
2019-02-21T23:33:49.427Z,28.97
2019-02-21T23:36:18.029Z,29.70
2019-02-21T23:38:46.606Z,30.80
2019-02-21T23:41:15.228Z,29.13
2019-02-21T23:43:43.664Z,30.20
2019-02-21T23:46:12.171Z,30.60
2019-02-21T23:48:40.838Z,30.97
2019-02-21T23:51:09.293Z,31.60
2019-02-21T23:53:37.755Z,33.33
2019-02-21T23:56:06.178Z,32.80
2019-02-21T23:58:34.622Z,31.63
